createdAt,value
2022-11-24T00:02:10.656Z,11.90
2022-11-24T00:04:41.534Z,13.10
2022-11-24T00:07:12.440Z,12.50
2022-11-24T00:09:43.203Z,12.40
2022-11-24T00:12:13.812Z,12.00
2022-11-24T00:14:44.809Z,8.50
2022-11-24T00:17:15.597Z,8.50
2022-11-24T00:19:46.478Z,14.40
2022-11-24T00:22:17.098Z,9.20
2022-11-24T00:24:47.693Z,9.30
2022-11-24T00:27:18.509Z,10.80
2022-11-24T00:29:49.283Z,12.50
2022-11-24T00:32:20.089Z,12.90
2022-11-24T00:34:50.770Z,11.80
2022-11-24T00:37:21.468Z,12.30
2022-11-24T00:39:52.207Z,10.80
2022-11-24T00:42:22.840Z,11.30
2022-11-24T00:44:53.682Z,13.70
2022-11-24T00:47:24.501Z,12.40
2022-11-24T00:49:55.273Z,10.60
2022-11-24T00:52:25.868Z,11.50
2022-11-24T00:54:56.626Z,11.70
2022-11-24T00:57:27.334Z,11.80
2022-11-24T00:59:58.051Z,11.60
2022-11-24T01:02:29.177Z,10.10
2022-11-24T01:04:59.841Z,8.20
2022-11-24T01:07:30.530Z,11.00
2022-11-24T01:10:01.266Z,9.70
2022-11-24T01:12:31.903Z,9.10
2022-11-24T01:15:03.009Z,9.60
2022-11-24T01:17:33.819Z,12.10
2022-11-24T01:20:05.172Z,11.00
2022-11-24T01:22:35.833Z,10.20
2022-11-24T01:25:07.772Z,10.50
2022-11-24T01:27:39.164Z,10.80
2022-11-24T01:30:12.427Z,9.80
2022-11-24T01:32:43.155Z,9.40
2022-11-24T01:35:13.960Z,10.80
2022-11-24T01:37:44.627Z,6.20
2022-11-24T01:40:16.031Z,10.00
2022-11-24T01:42:52.884Z,10.70
2022-11-24T01:45:40.745Z,10.70
2022-11-24T01:48:23.185Z,9.60
2022-11-24T01:51:05.026Z,7.50
2022-11-24T01:53:36.709Z,7.50
2022-11-24T01:56:08.972Z,9.20
2022-11-24T01:58:41.872Z,7.80
2022-11-24T02:01:14.087Z,6.70
2022-11-24T02:03:47.131Z,13.50
2022-11-24T02:06:21.533Z,10.70
2022-11-24T02:08:59.188Z,11.60
2022-11-24T02:11:34.738Z,10.10
2022-11-24T02:14:07.286Z,8.70
2022-11-24T02:16:40.484Z,10.10
2022-11-24T02:21:45.411Z,8.90
2022-11-24T02:24:24.495Z,9.80
2022-11-24T02:26:55.091Z,7.80
2022-11-24T02:29:25.818Z,8.30
2022-11-24T02:32:01.591Z,7.50
2022-11-24T02:34:32.649Z,7.90
2022-11-24T02:37:03.569Z,11.30
2022-11-24T02:39:34.323Z,10.40
2022-11-24T02:42:09.340Z,10.40
2022-11-24T02:44:44.876Z,10.20
2022-11-24T02:47:16.096Z,6.70
2022-11-24T02:49:46.771Z,9.20
2022-11-24T02:52:17.539Z,7.40
2022-11-24T02:54:48.366Z,8.90
2022-11-24T02:57:18.998Z,9.20
2022-11-24T02:59:49.755Z,9.40
2022-11-24T03:02:20.863Z,7.90
2022-11-24T03:04:51.539Z,11.40
2022-11-24T03:07:23.021Z,9.70
2022-11-24T03:09:53.777Z,10.10
2022-11-24T03:12:24.547Z,10.00
2022-11-24T03:14:55.225Z,10.10
2022-11-24T03:17:26.040Z,8.40
2022-11-24T03:20:01.452Z,9.00
2022-11-24T03:22:35.125Z,7.40
2022-11-24T03:25:06.896Z,8.10
2022-11-24T03:27:37.584Z,6.90
2022-11-24T03:30:10.749Z,7.00
2022-11-24T03:35:12.135Z,10.40
2022-11-24T03:37:42.885Z,9.50
2022-11-24T03:40:14.875Z,8.70
2022-11-24T03:42:45.450Z,8.80
2022-11-24T03:45:44.203Z,8.60
2022-11-24T03:48:08.231Z,8.70
2022-11-24T03:50:39.063Z,7.50
2022-11-24T03:53:10.196Z,7.80
2022-11-24T03:55:40.831Z,7.30
2022-11-24T03:58:11.445Z,6.20
2022-11-24T04:00:42.192Z,10.10
2022-11-24T04:03:13.088Z,9.40
2022-11-24T04:05:43.852Z,8.60
2022-11-24T04:08:14.807Z,8.30
2022-11-24T04:10:45.868Z,7.70
2022-11-24T04:13:18.602Z,6.60
2022-11-24T04:15:49.476Z,7.00
2022-11-24T04:18:20.734Z,7.90
2022-11-24T04:20:53.282Z,6.00
2022-11-24T04:23:24.380Z,7.80
2022-11-24T04:25:55.143Z,6.30
2022-11-24T04:28:25.878Z,8.70
2022-11-24T04:30:56.729Z,10.30
2022-11-24T04:33:27.408Z,10.60
2022-11-24T04:35:58.386Z,9.60
2022-11-24T04:39:25.774Z,10.00
2022-11-24T04:41:19.882Z,7.70
2022-11-24T04:43:53.525Z,7.50
2022-11-24T04:46:24.249Z,5.80
2022-11-24T04:48:55.099Z,7.60
2022-11-24T04:51:25.852Z,8.30
2022-11-24T04:53:56.560Z,2.80
2022-11-24T04:56:27.246Z,12.70
2022-11-24T04:58:57.910Z,9.10
2022-11-24T05:01:28.786Z,8.80
2022-11-24T05:03:59.831Z,10.10
2022-11-24T05:06:30.638Z,10.40
2022-11-24T05:09:01.282Z,9.20
2022-11-24T05:11:31.912Z,6.90
2022-11-24T05:14:03.018Z,9.00
2022-11-24T05:16:33.768Z,8.90
2022-11-24T05:19:04.559Z,10.40
2022-11-24T05:21:35.252Z,8.90
2022-11-24T05:24:06.796Z,7.30
2022-11-24T05:26:37.398Z,10.20
2022-11-24T05:29:08.160Z,10.10
2022-11-24T05:31:39.131Z,8.70
2022-11-24T05:34:10.107Z,9.60
2022-11-24T05:36:56.387Z,10.50
2022-11-24T05:39:27.008Z,8.80
2022-11-24T05:41:57.816Z,13.70
2022-11-24T05:44:28.487Z,10.20
2022-11-24T05:46:59.358Z,10.80
2022-11-24T05:49:30.034Z,11.00
2022-11-24T05:52:00.625Z,10.40
2022-11-24T05:54:31.665Z,9.70
2022-11-24T05:57:02.608Z,9.30
2022-11-24T05:59:33.923Z,9.40
2022-11-24T06:02:04.645Z,10.60
2022-11-24T06:04:35.782Z,8.50
2022-11-24T06:07:08.911Z,15.10
2022-11-24T06:09:41.010Z,11.30
2022-11-24T06:12:13.351Z,11.00
2022-11-24T06:14:44.325Z,12.30
2022-11-24T06:17:15.439Z,10.90
2022-11-24T06:19:50.237Z,10.10
2022-11-24T06:22:21.047Z,8.60
2022-11-24T06:24:51.826Z,10.30
2022-11-24T06:27:22.417Z,10.70
2022-11-24T06:29:53.253Z,10.70
2022-11-24T06:32:24.207Z,9.80
2022-11-24T06:34:55.004Z,14.70
2022-11-24T06:37:25.727Z,13.40
2022-11-24T06:39:56.363Z,10.40
2022-11-24T06:42:27.105Z,10.70
2022-11-24T06:44:57.814Z,11.80
2022-11-24T06:47:28.494Z,10.50
2022-11-24T06:49:59.571Z,12.70
2022-11-24T06:52:29.952Z,10.50
2022-11-24T06:55:00.723Z,10.80
2022-11-24T06:57:31.674Z,11.60
2022-11-24T07:00:02.416Z,10.50
2022-11-24T07:02:33.354Z,11.40
2022-11-24T07:05:04.055Z,12.60
2022-11-24T07:07:34.732Z,10.30
2022-11-24T07:10:06.630Z,14.30
2022-11-24T07:12:38.035Z,13.20
2022-11-24T07:15:10.824Z,11.50
2022-11-24T07:17:41.772Z,10.70
2022-11-24T07:20:13.304Z,10.70
2022-11-24T07:22:43.970Z,11.20
2022-11-24T07:25:17.384Z,10.80
2022-11-24T07:27:48.047Z,10.70
2022-11-24T07:30:19.858Z,11.00
2022-11-24T07:32:50.536Z,14.00
2022-11-24T07:35:21.166Z,10.70
2022-11-24T07:37:52.383Z,9.90
2022-11-24T07:40:23.403Z,10.60
2022-11-24T07:42:54.090Z,12.80
2022-11-24T07:45:24.922Z,11.00
2022-11-24T07:47:55.521Z,11.60
2022-11-24T07:50:26.524Z,11.40
2022-11-24T07:53:01.907Z,11.90
2022-11-24T07:55:32.597Z,13.70
2022-11-24T07:58:04.105Z,12.50
2022-11-24T08:00:34.874Z,11.00
2022-11-24T08:03:05.564Z,11.70
2022-11-24T08:05:49.123Z,12.60
2022-11-24T08:08:27.981Z,11.60
2022-11-24T08:10:58.612Z,11.10
2022-11-24T08:13:29.194Z,11.20
2022-11-24T08:15:59.841Z,12.30
2022-11-24T08:18:30.488Z,14.20
2022-11-24T08:21:02.150Z,11.90
2022-11-24T08:23:33.374Z,10.20
2022-11-24T08:26:09.235Z,9.60
2022-11-24T08:28:40.273Z,12.10
2022-11-24T08:31:12.821Z,10.70
2022-11-24T08:33:44.399Z,12.60
2022-11-24T08:36:16.950Z,11.80
2022-11-24T08:38:49.035Z,12.40
2022-11-24T08:41:19.827Z,14.50
2022-11-24T08:43:50.500Z,13.10
2022-11-24T08:46:21.868Z,11.30
2022-11-24T08:48:54.178Z,11.50
2022-11-24T08:51:27.379Z,12.00
2022-11-24T08:53:59.370Z,11.60
2022-11-24T08:56:31.875Z,11.30
2022-11-24T08:59:03.629Z,10.40
2022-11-24T09:01:34.523Z,11.90
2022-11-24T09:04:05.380Z,10.10
2022-11-24T09:06:36.047Z,11.30
2022-11-24T09:09:06.860Z,9.80
2022-11-24T09:11:37.465Z,10.90
2022-11-24T09:14:08.089Z,10.10
2022-11-24T09:16:38.962Z,10.20
2022-11-24T09:19:11.174Z,9.80
2022-11-24T09:21:42.094Z,9.80
2022-11-24T09:24:13.536Z,12.40
2022-11-24T09:26:47.619Z,10.40
2022-11-24T09:29:22.769Z,10.80
2022-11-24T09:31:53.593Z,11.00
2022-11-24T09:34:24.217Z,13.00
2022-11-24T09:36:55.653Z,13.80
2022-11-24T09:39:26.386Z,12.80
2022-11-24T09:42:18.969Z,12.00
2022-11-24T09:45:12.706Z,12.10
2022-11-24T09:47:55.194Z,13.10
2022-11-24T09:50:27.864Z,12.10
2022-11-24T09:53:04.250Z,12.10
2022-11-24T09:55:45.354Z,11.90
2022-11-24T09:58:31.260Z,12.50
2022-11-24T10:01:11.059Z,11.70
2022-11-24T10:03:44.669Z,12.80
2022-11-24T10:06:23.753Z,11.10
2022-11-24T10:11:47.788Z,10.80
2022-11-24T10:15:03.932Z,10.30
2022-11-24T10:17:52.595Z,9.80
2022-11-24T10:20:33.792Z,9.80
2022-11-24T10:23:20.078Z,11.90
2022-11-24T10:25:57.329Z,10.30
2022-11-24T10:28:33.207Z,8.60
2022-11-24T10:31:23.556Z,11.20
2022-11-24T10:33:54.497Z,10.20
2022-11-24T10:36:33.202Z,10.90
2022-11-24T10:39:11.395Z,11.10
2022-11-24T10:41:49.875Z,9.90
2022-11-24T10:44:20.730Z,11.30
2022-11-24T10:46:52.142Z,9.90
2022-11-24T10:49:28.731Z,9.90
2022-11-24T10:52:07.919Z,11.60
2022-11-24T10:54:54.291Z,11.20
2022-11-24T10:57:33.314Z,9.90
2022-11-24T11:02:39.872Z,9.20
2022-11-24T11:05:42.427Z,12.10
2022-11-24T11:08:23.060Z,12.00
2022-11-24T11:11:11.365Z,11.50
2022-11-24T11:13:52.041Z,10.40
2022-11-24T11:16:34.647Z,12.20
2022-11-24T11:19:25.993Z,10.70
2022-11-24T11:22:05.443Z,12.70
2022-11-24T11:24:37.023Z,14.90
2022-11-24T11:27:17.719Z,11.60
2022-11-24T11:35:47.996Z,10.80
2022-11-24T11:38:18.934Z,10.60
2022-11-24T11:40:52.560Z,11.40
2022-11-24T11:43:28.581Z,11.50
2022-11-24T11:46:04.789Z,10.40
2022-11-24T11:48:43.159Z,10.50
2022-11-24T11:51:32.210Z,12.20
2022-11-24T11:54:15.026Z,11.00
2022-11-24T11:56:48.592Z,10.70
2022-11-24T11:59:46.813Z,12.00
2022-11-24T12:02:40.652Z,11.40
2022-11-24T12:05:19.495Z,10.30
2022-11-24T12:08:09.205Z,9.60
2022-11-24T12:10:46.906Z,11.10
2022-11-24T12:13:43.254Z,11.20
2022-11-24T12:16:30.851Z,11.80
2022-11-24T12:19:16.530Z,11.70
2022-11-24T12:21:56.687Z,12.00
2022-11-24T12:24:38.773Z,10.50
2022-11-24T12:27:22.833Z,10.70
2022-11-24T12:30:09.146Z,10.90
2022-11-24T12:33:08.842Z,10.80
2022-11-24T12:35:43.939Z,11.40
2022-11-24T12:38:33.616Z,10.80
2022-11-24T12:41:45.789Z,10.60
2022-11-24T12:44:28.932Z,11.10
2022-11-24T12:47:08.758Z,10.30
2022-11-24T12:49:51.600Z,11.60
2022-11-24T12:52:27.362Z,12.70
2022-11-24T12:54:59.251Z,11.50
2022-11-24T12:57:36.919Z,12.80
2022-11-24T13:00:17.795Z,11.70
2022-11-24T13:03:01.786Z,13.30
2022-11-24T13:05:42.658Z,13.80
2022-11-24T13:08:15.302Z,12.20
2022-11-24T13:10:55.687Z,11.60
2022-11-24T13:13:49.437Z,11.70
2022-11-24T13:16:35.708Z,11.30
2022-11-24T13:19:15.045Z,10.80
2022-11-24T13:24:33.836Z,12.30
2022-11-24T13:27:40.895Z,12.40
2022-11-24T13:30:51.427Z,11.40
2022-11-24T13:33:32.502Z,11.50
2022-11-24T13:36:54.493Z,11.70
2022-11-24T13:39:50.616Z,10.70
2022-11-24T13:42:42.849Z,11.50
2022-11-24T13:45:49.741Z,11.40
2022-11-24T13:48:51.365Z,12.40
2022-11-24T13:51:26.784Z,11.00
2022-11-24T13:54:00.912Z,11.50
2022-11-24T13:56:33.213Z,10.90
2022-11-24T13:59:18.789Z,11.40
2022-11-24T14:01:59.308Z,11.00
2022-11-24T14:04:32.881Z,12.40
2022-11-24T14:07:08.741Z,11.70
2022-11-24T14:09:45.782Z,11.70
2022-11-24T14:12:20.286Z,12.20
2022-11-24T14:14:52.804Z,10.40
2022-11-24T14:17:25.531Z,11.50
2022-11-24T14:19:58.698Z,11.30
2022-11-24T14:22:37.272Z,10.90
2022-11-24T14:25:21.085Z,10.50
2022-11-24T14:27:51.854Z,10.30
2022-11-24T14:30:26.050Z,11.40
2022-11-24T14:33:01.357Z,10.40
2022-11-24T14:35:34.067Z,10.80
2022-11-24T14:38:06.900Z,10.50
2022-11-24T14:40:46.607Z,11.50
2022-11-24T14:43:23.772Z,11.80
2022-11-24T14:45:57.557Z,12.80
2022-11-24T14:48:30.449Z,14.20
2022-11-24T14:53:42.031Z,11.50
2022-11-24T14:56:25.522Z,11.50
2022-11-24T14:58:57.445Z,11.70
2022-11-24T15:01:34.993Z,10.70
2022-11-24T15:04:46.708Z,16.20
2022-11-24T15:07:21.586Z,12.20
2022-11-24T15:09:58.012Z,11.10
2022-11-24T15:12:34.260Z,12.40
2022-11-24T15:15:07.784Z,10.90
2022-11-24T15:17:38.618Z,11.80
2022-11-24T15:20:21.660Z,13.00
2022-11-24T15:22:52.912Z,10.60
2022-11-24T15:25:33.459Z,9.40
2022-11-24T15:28:04.226Z,9.90
2022-11-24T15:30:37.279Z,10.30
2022-11-24T15:33:16.507Z,9.90
2022-11-24T15:35:48.786Z,9.50
2022-11-24T15:38:19.606Z,9.90
2022-11-24T15:40:52.012Z,11.80
2022-11-24T15:43:32.938Z,10.30
2022-11-24T15:46:04.727Z,10.90
2022-11-24T15:48:35.826Z,10.40
2022-11-24T15:51:12.425Z,12.30
2022-11-24T15:53:46.559Z,13.10
2022-11-24T15:56:25.502Z,11.30
2022-11-24T16:01:28.611Z,13.00
2022-11-24T16:03:59.550Z,11.30
2022-11-24T16:06:30.408Z,12.00
2022-11-24T16:09:01.201Z,13.20
2022-11-24T16:11:31.983Z,12.70
2022-11-24T16:14:02.785Z,11.80
2022-11-24T16:16:33.485Z,12.70
2022-11-24T16:19:04.346Z,12.10
2022-11-24T16:21:34.954Z,12.20
2022-11-24T16:24:06.089Z,12.40
2022-11-24T16:26:37.028Z,17.30
2022-11-24T16:29:07.781Z,11.20
2022-11-24T16:31:38.541Z,10.70
2022-11-24T16:34:09.212Z,10.00
2022-11-24T16:36:39.808Z,11.20
2022-11-24T16:39:10.454Z,10.10
2022-11-24T16:41:41.136Z,11.00
2022-11-24T16:44:11.840Z,11.50
2022-11-24T16:46:44.670Z,12.50
2022-11-24T16:49:17.602Z,12.90
2022-11-24T16:54:18.479Z,10.90
2022-11-24T16:56:49.399Z,10.80
2022-11-24T16:59:20.092Z,12.20
2022-11-24T17:01:51.314Z,16.90
2022-11-24T17:04:22.672Z,14.90
2022-11-24T17:06:53.717Z,13.20
2022-11-24T17:09:24.735Z,14.60
2022-11-24T17:11:55.547Z,12.60
2022-11-24T17:14:26.310Z,13.00
2022-11-24T17:16:57.071Z,12.80
2022-11-24T17:19:27.907Z,13.00
2022-11-24T17:21:58.751Z,13.60
2022-11-24T17:24:29.972Z,13.70
2022-11-24T17:27:00.797Z,14.20
2022-11-24T17:29:31.726Z,12.50
2022-11-24T17:32:02.459Z,12.30
2022-11-24T17:34:33.920Z,11.40
2022-11-24T17:37:04.825Z,11.00
2022-11-24T17:39:35.512Z,10.70
2022-11-24T17:42:07.046Z,12.80
2022-11-24T17:44:37.936Z,11.50
2022-11-24T17:47:09.025Z,10.90
2022-11-24T17:49:39.755Z,10.40
2022-11-24T17:52:10.895Z,12.40
2022-11-24T17:54:48.979Z,13.90
2022-11-24T17:57:19.816Z,13.20
2022-11-24T17:59:51.568Z,14.50
2022-11-24T18:02:22.506Z,11.80
2022-11-24T18:04:53.351Z,11.40
2022-11-24T18:07:24.066Z,11.90
2022-11-24T18:09:54.668Z,13.70
2022-11-24T18:12:25.356Z,13.70
2022-11-24T18:14:56.312Z,11.70
2022-11-24T18:17:29.202Z,11.60
2022-11-24T18:22:50.414Z,11.60
2022-11-24T18:25:20.431Z,12.20
2022-11-24T18:27:51.187Z,12.30
2022-11-24T18:30:22.320Z,13.40
2022-11-24T18:32:53.142Z,11.70
2022-11-24T18:35:23.917Z,13.10
2022-11-24T18:37:54.568Z,10.10
2022-11-24T18:40:25.300Z,10.60
2022-11-24T18:42:55.943Z,11.50
2022-11-24T18:45:27.357Z,9.40
2022-11-24T18:47:58.179Z,10.10
2022-11-24T18:50:28.831Z,11.60
2022-11-24T18:53:00.096Z,12.40
2022-11-24T18:55:30.850Z,10.60
2022-11-24T18:58:01.870Z,10.90
2022-11-24T19:00:33.603Z,12.00
2022-11-24T19:03:04.389Z,11.90
2022-11-24T19:05:37.359Z,12.30
2022-11-24T19:10:40.746Z,10.30
2022-11-24T19:13:12.766Z,11.50
2022-11-24T19:15:45.728Z,12.40
2022-11-24T19:18:16.591Z,12.50
2022-11-24T19:20:47.718Z,12.40
2022-11-24T19:23:19.383Z,14.30
2022-11-24T19:25:50.227Z,10.60
2022-11-24T19:28:20.959Z,11.90
2022-11-24T19:30:51.912Z,11.90
2022-11-24T19:33:23.509Z,12.10
2022-11-24T19:36:03.485Z,12.60
2022-11-24T19:38:35.458Z,12.30
2022-11-24T19:41:07.822Z,12.60
2022-11-24T19:43:39.150Z,12.40
2022-11-24T19:46:12.651Z,11.40
2022-11-24T19:48:45.278Z,10.50
2022-11-24T19:51:17.439Z,11.10
2022-11-24T19:53:48.485Z,11.30
2022-11-24T19:56:21.244Z,11.10
2022-11-24T19:58:53.181Z,11.10
2022-11-24T20:01:26.567Z,10.10
2022-11-24T20:04:00.137Z,12.10
2022-11-24T20:06:32.410Z,10.80
2022-11-24T20:09:04.153Z,11.40
2022-11-24T20:11:35.087Z,9.30
2022-11-24T20:14:06.731Z,10.60
2022-11-24T20:16:37.889Z,9.80
2022-11-24T20:19:11.825Z,10.50
2022-11-24T20:21:46.194Z,10.20
2022-11-24T20:24:18.640Z,8.70
2022-11-24T20:26:51.426Z,9.80
2022-11-24T20:29:22.602Z,9.90
2022-11-24T20:31:54.805Z,9.70
2022-11-24T20:34:26.330Z,10.60
2022-11-24T20:36:57.023Z,10.60
2022-11-24T20:39:28.828Z,9.80
2022-11-24T20:41:59.454Z,9.80
2022-11-24T20:44:30.407Z,10.00
2022-11-24T20:47:02.904Z,10.40
2022-11-24T20:49:33.822Z,10.40
2022-11-24T20:52:04.718Z,10.80
2022-11-24T20:54:35.550Z,8.50
2022-11-24T20:57:06.495Z,9.40
2022-11-24T20:59:37.425Z,10.10
2022-11-24T21:02:08.322Z,10.50
2022-11-24T21:04:39.298Z,9.20
2022-11-24T21:07:13.491Z,9.40
2022-11-24T21:09:44.306Z,9.30
2022-11-24T21:12:15.086Z,9.70
2022-11-24T21:14:45.717Z,9.30
2022-11-24T21:17:16.590Z,8.30
2022-11-24T21:19:47.530Z,9.70
2022-11-24T21:22:18.327Z,9.70
2022-11-24T21:24:49.012Z,8.30
2022-11-24T21:27:19.689Z,10.10
2022-11-24T21:29:50.354Z,9.50
2022-11-24T21:32:20.996Z,10.50
2022-11-24T21:34:51.597Z,8.90
2022-11-24T21:37:22.218Z,9.40
2022-11-24T21:39:53.129Z,9.00
2022-11-24T21:42:24.041Z,8.20
2022-11-24T21:44:54.824Z,7.90
2022-11-24T21:47:26.412Z,8.50
2022-11-24T21:49:57.264Z,9.00
2022-11-24T21:52:28.033Z,8.60
2022-11-24T21:54:58.582Z,8.90
2022-11-24T21:57:31.188Z,8.60
2022-11-24T22:00:01.900Z,8.00
2022-11-24T22:02:52.563Z,8.40
2022-11-24T22:05:25.129Z,8.30
2022-11-24T22:07:55.998Z,9.10
2022-11-24T22:10:26.795Z,8.40
2022-11-24T22:12:57.515Z,9.30
2022-11-24T22:15:28.281Z,7.80
2022-11-24T22:17:58.958Z,8.90
2022-11-24T22:20:29.685Z,9.20
2022-11-24T22:23:00.435Z,9.40
2022-11-24T22:25:31.100Z,9.90
2022-11-24T22:28:01.857Z,8.90
2022-11-24T22:30:32.721Z,7.70
2022-11-24T22:33:03.533Z,8.20
2022-11-24T22:35:34.282Z,8.90
2022-11-24T22:38:04.960Z,8.20
2022-11-24T22:40:35.704Z,10.10
2022-11-24T22:43:06.489Z,8.00
2022-11-24T22:45:37.976Z,7.60
2022-11-24T22:48:09.200Z,8.00
2022-11-24T22:50:39.846Z,8.50
2022-11-24T22:53:10.612Z,8.00
2022-11-24T22:55:41.410Z,7.50
2022-11-24T22:58:11.989Z,8.20
2022-11-24T23:00:42.670Z,8.50
2022-11-24T23:03:13.556Z,6.60
2022-11-24T23:05:44.368Z,7.20
2022-11-24T23:08:15.115Z,8.50
2022-11-24T23:10:45.848Z,7.30
2022-11-24T23:13:16.415Z,7.10
2022-11-24T23:15:47.065Z,7.30
2022-11-24T23:18:17.774Z,8.80
2022-11-24T23:20:48.461Z,6.70
2022-11-24T23:23:19.027Z,6.90
2022-11-24T23:25:49.682Z,7.70
2022-11-24T23:28:20.410Z,7.00
2022-11-24T23:30:50.990Z,7.50
2022-11-24T23:33:21.600Z,6.80
2022-11-24T23:35:52.117Z,6.90
2022-11-24T23:38:22.749Z,6.60
2022-11-24T23:40:55.922Z,8.00
2022-11-24T23:43:26.658Z,6.80
2022-11-24T23:46:01.754Z,7.20
2022-11-24T23:48:32.465Z,7.20
2022-11-24T23:51:08.671Z,6.50
2022-11-24T23:53:39.735Z,6.80
2022-11-24T23:56:12.679Z,5.40
